Golden Shores, Arizona
Current Conditions -  °F | °C
As of 8:56 PM on Friday 24 Oct 2014 (Local Time) from KEED Reporting Station
Clear Clear  
Wind Chill: 81°   Ceiling: Unl
Heat Index: 81°   Visibility: 10mi
Dew Point: 39°   Wind: 8mph
Humidity: 22%   Direction: 250°WSW
Pressure: 29.95"   Gusts: NA
Location:  34.7791°N, 114.467°W
Report Text: KEED 250356Z AUTO 25007KT 10SM CLR 27/04 A2995 RMK AO2 SLP114 T02720039
Loading
Personal Weather Stations






























Interactive Weather Map
Tropical Storm Tracking
New forecast layout! Learn more

10-Day Weather Forecast

Advertisements
Track Severe Weather on mobile